KCCY/CCY METAR and TAF weather

Enter ICAO airport designator
Station Type Date Time Source
KCCY METAR 2019/02/23 23:35 UTC NOAA

KCCY 232335Z AUTO 04013KT 1/4SM -RA OVC002 00/00 A2955 RMK AO2


Station Type Date Time Source
KCCY Decoded METAR 2019/02/23 23:35 UTC NOAA

Charles City, IA, United States (KCCY) 43-04N 092-37W
Feb 23, 2019 - 06:35 PM EST / 2019.02.23 2335 UTC
Wind: from the NE (040 degrees) at 15 MPH (13 KT):0
Visibility: 1/4 mile(s):0
Sky conditions: overcast
Weather: light rain
Temperature: 32 F (0 C)
Windchill: 21 F (-6 C):1
Dew Point: 32 F (0 C)
Relative Humidity: 100%
Pressure (altimeter): 29.55 in. Hg (1000 hPa)
ob: KCCY 232335Z AUTO 04013KT 1/4SM -RA OVC002 00/00 A2955 RMK AO2
cycle: 23

Station Type Date Time Source
KCCY TAF UTC NOAA

Error!


Example: see airport list